Time;durP1;ratioP1;P1;durP2;ratioP2;P2;SDS_P1;SDS_P2;PMS_P1;PMS_P2;Temp;Humidity;BMP_temperature;BMP_pressure;BME280_temperature;BME280_humidity;BME280_pressure;Samples;Min_cycle;Max_cycle;Signal;HPM_P1;HPM_P2
2022/06/18 00:01:41;;;;;;;2.15;1.40;;;25.00;80.80;;;;;;4095266;28;20090;-71
2022/06/18 00:03:41;;;;;;;3.00;1.77;;;25.00;80.70;;;;;;4097436;28;20094;-70
2022/06/18 00:05:44;;;;;;;6.90;1.48;;;25.00;80.80;;;;;;4095245;28;20035;-70
2022/06/18 00:07:50;;;;;;;2.92;2.25;;;25.00;80.70;;;;;;4096102;28;20047;-69
2022/06/18 00:09:57;;;;;;;3.65;1.70;;;24.90;80.50;;;;;;4096905;28;20043;-70
2022/06/18 00:14:20;;;;;;;2.00;1.30;;;24.90;80.50;;;;;;4095787;28;20035;-70
2022/06/18 00:16:21;;;;;;;1.88;1.30;;;24.90;81.20;;;;;;4095327;28;20031;-70
2022/06/18 00:18:22;;;;;;;2.97;1.70;;;24.80;80.90;;;;;;4096609;28;20039;-70
2022/06/18 00:20:25;;;;;;;6.53;1.60;;;24.80;80.90;;;;;;4094129;28;20439;-70
2022/06/18 00:22:26;;;;;;;1.60;1.40;;;24.80;81.10;;;;;;4097111;28;20442;-70
2022/06/18 00:24:26;;;;;;;2.88;1.67;;;24.70;81.00;;;;;;4097108;28;20031;-70
2022/06/18 00:26:27;;;;;;;4.65;1.88;;;24.70;81.10;;;;;;4095546;28;20038;-70
2022/06/18 00:28:30;;;;;;;2.33;1.33;;;24.70;81.20;;;;;;4096568;28;20383;-70
2022/06/18 00:30:31;;;;;;;4.30;1.52;;;24.70;81.60;;;;;;4095653;28;20063;-70
2022/06/18 00:32:32;;;;;;;1.77;1.50;;;24.70;81.60;;;;;;4096967;28;20040;-70
2022/06/18 00:34:32;;;;;;;2.22;1.60;;;24.70;81.60;;;;;;4097023;28;20547;-70
2022/06/18 00:36:36;;;;;;;2.80;1.60;;;24.70;81.30;;;;;;4096101;28;20794;-70
2022/06/18 00:38:43;;;;;;;4.05;1.40;;;24.70;81.00;;;;;;4096164;28;20038;-70
2022/06/18 00:40:45;;;;;;;2.65;1.42;;;24.70;81.70;;;;;;4095929;28;20431;-70
2022/06/18 00:42:45;;;;;;;2.40;1.40;;;24.70;81.30;;;;;;4096571;28;20047;-70
2022/06/18 00:44:53;;;;;;;2.17;1.30;;;24.70;81.70;;;;;;4097340;28;20040;-70
2022/06/18 00:46:54;;;;;;;1.83;1.23;;;24.60;81.80;;;;;;4084409;29;20043;-71
2022/06/18 00:49:20;;;;;;;2.38;1.70;;;24.60;81.20;;;;;;4096192;28;20089;-70
2022/06/18 00:51:28;;;;;;;1.95;1.40;;;24.60;82.10;;;;;;4095383;28;20035;-70
2022/06/18 00:53:36;;;;;;;3.08;1.67;;;24.50;82.20;;;;;;4092716;28;20031;-70
2022/06/18 00:55:46;;;;;;;3.63;1.65;;;24.50;84.30;;;;;;4095998;28;20105;-70
2022/06/18 00:58:01;;;;;;;1.80;1.60;;;24.50;82.10;;;;;;4096144;28;20032;-69
2022/06/18 01:00:07;;;;;;;1.75;1.20;;;24.40;82.80;;;;;;4095282;28;20054;-70
2022/06/18 01:02:16;;;;;;;1.95;1.50;;;24.40;82.70;;;;;;4096545;28;20031;-70
2022/06/18 01:04:33;;;;;;;3.30;1.77;;;24.30;82.90;;;;;;4095692;28;20037;-70
2022/06/18 01:06:33;;;;;;;3.03;1.63;;;24.30;82.80;;;;;;4092475;28;20127;-70
2022/06/18 01:08:34;;;;;;;2.60;1.38;;;24.30;83.10;;;;;;4096263;28;20249;-70
2022/06/18 01:10:41;;;;;;;4.95;1.55;;;24.30;83.40;;;;;;4095484;28;20067;-70
2022/06/18 01:12:41;;;;;;;2.95;1.52;;;24.30;83.10;;;;;;4096790;28;20039;-70
2022/06/18 01:14:42;;;;;;;2.05;1.55;;;24.20;83.30;;;;;;4099657;28;20047;-70
2022/06/18 01:16:43;;;;;;;2.90;1.45;;;24.20;83.80;;;;;;4095165;28;20505;-70
2022/06/18 01:18:47;;;;;;;4.88;1.55;;;24.20;83.50;;;;;;4095927;28;20047;-70
2022/06/18 01:21:01;;;;;;;5.00;1.80;;;24.20;83.40;;;;;;4093751;28;20050;-70
2022/06/18 01:23:09;;;;;;;1.55;1.25;;;24.20;84.00;;;;;;4094926;28;20039;-70
2022/06/18 01:25:11;;;;;;;3.95;1.90;;;24.10;83.60;;;;;;4092333;28;20094;-71
2022/06/18 01:27:11;;;;;;;2.35;1.60;;;24.20;83.90;;;;;;4095820;29;20027;-70
2022/06/18 01:29:12;;;;;;;2.25;1.35;;;24.20;83.50;;;;;;4095795;28;20039;-70
2022/06/18 01:31:13;;;;;;;2.85;1.50;;;24.10;84.40;;;;;;4095089;28;20027;-70
2022/06/18 01:33:15;;;;;;;2.42;1.33;;;24.10;83.90;;;;;;4096111;29;20039;-70
2022/06/18 01:35:17;;;;;;;2.00;1.63;;;24.10;83.40;;;;;;4094817;28;20399;-69
2022/06/18 01:37:17;;;;;;;1.60;1.20;;;24.10;83.90;;;;;;4095700;28;20086;-70
2022/06/18 01:39:23;;;;;;;5.57;1.27;;;24.10;83.70;;;;;;4091377;28;20034;-69
2022/06/18 01:43:51;;;;;;;2.22;1.52;;;24.00;83.90;;;;;;4096124;28;20054;-70
2022/06/18 01:45:58;;;;;;;2.25;1.67;;;24.00;84.80;;;;;;4096101;28;20046;-69
2022/06/18 01:48:08;;;;;;;2.95;1.50;;;24.00;83.60;;;;;;4095984;28;20034;-70
2022/06/18 01:50:15;;;;;;;1.52;1.00;;;24.00;83.90;;;;;;4094816;28;20114;-71
2022/06/18 01:52:20;;;;;;;2.88;1.40;;;24.00;83.80;;;;;;4095870;28;20039;-70
2022/06/18 01:54:27;;;;;;;3.25;1.50;;;24.00;84.60;;;;;;4097266;28;20483;-70
2022/06/18 01:56:34;;;;;;;1.55;1.00;;;24.00;85.00;;;;;;4095248;28;20058;-70
2022/06/18 01:58:37;;;;;;;3.80;1.50;;;24.00;85.00;;;;;;4084159;29;20039;-70
2022/06/18 02:00:41;;;;;;;2.35;1.45;;;23.90;84.60;;;;;;4094764;28;20043;-70
2022/06/18 02:02:43;;;;;;;1.50;1.00;;;24.00;84.20;;;;;;4095325;28;20180;-70
2022/06/18 02:04:44;;;;;;;1.33;1.08;;;23.90;84.20;;;;;;4096247;28;20122;-69
2022/06/18 02:06:46;;;;;;;1.25;1.10;;;23.90;84.40;;;;;;4095230;28;20035;-70
2022/06/18 02:08:48;;;;;;;1.63;1.30;;;23.90;85.00;;;;;;4093672;28;20059;-70
2022/06/18 02:10:57;;;;;;;2.25;1.40;;;23.90;85.00;;;;;;4094523;28;20031;-69
2022/06/18 02:13:01;;;;;;;2.63;1.30;;;23.90;85.40;;;;;;4097695;28;20458;-70
2022/06/18 02:15:08;;;;;;;2.42;1.30;;;23.90;84.70;;;;;;4095791;28;20409;-70
2022/06/18 02:17:17;;;;;;;2.53;1.08;;;23.80;84.90;;;;;;4095699;28;20106;-70
2022/06/18 02:19:18;;;;;;;1.88;1.33;;;23.80;84.90;;;;;;4094316;28;20039;-70
2022/06/18 02:21:24;;;;;;;1.75;1.38;;;23.80;84.80;;;;;;4094944;28;20555;-70
2022/06/18 02:23:24;;;;;;;2.40;1.30;;;23.80;84.80;;;;;;4096979;28;20034;-70
2022/06/18 02:25:30;;;;;;;5.22;1.30;;;23.80;85.50;;;;;;4095088;28;21237;-70
2022/06/18 02:27:31;;;;;;;2.33;1.40;;;23.80;85.20;;;;;;4092336;28;20031;-70
2022/06/18 02:29:34;;;;;;;1.92;1.23;;;23.80;85.60;;;;;;4096713;28;20031;-71
2022/06/18 02:31:35;;;;;;;2.10;1.45;;;23.80;85.40;;;;;;4098270;28;20037;-70
2022/06/18 02:33:47;;;;;;;2.88;1.52;;;23.80;85.00;;;;;;4099148;28;20426;-70
2022/06/18 02:35:48;;;;;;;1.50;1.17;;;23.70;86.60;;;;;;4097820;28;20058;-70
2022/06/18 02:37:48;;;;;;;2.33;1.35;;;23.80;85.80;;;;;;4099032;28;20040;-70
2022/06/18 02:39:59;;;;;;;2.08;1.25;;;23.70;85.60;;;;;;4097500;28;20032;-70
2022/06/18 02:42:14;;;;;;;2.05;1.50;;;23.70;86.80;;;;;;4098059;28;20067;-70
2022/06/18 02:44:15;;;;;;;2.53;1.23;;;23.70;86.30;;;;;;4095747;28;20150;-70
2022/06/18 02:46:18;;;;;;;4.22;1.20;;;23.70;85.50;;;;;;4097911;28;20039;-70
2022/06/18 02:48:24;;;;;;;3.95;1.45;;;23.70;86.00;;;;;;4097710;28;20065;-70
2022/06/18 02:50:28;;;;;;;3.97;1.60;;;23.70;85.80;;;;;;4093802;28;20075;-70
2022/06/18 02:52:35;;;;;;;3.25;1.38;;;23.70;86.30;;;;;;4097731;28;20537;-70
2022/06/18 02:54:36;;;;;;;2.30;1.30;;;23.70;86.30;;;;;;4094268;28;20050;-71
2022/06/18 02:56:36;;;;;;;2.05;1.35;;;23.60;86.80;;;;;;4098152;28;20589;-70
2022/06/18 02:58:40;;;;;;;1.77;1.30;;;23.60;86.70;;;;;;4098182;28;20062;-70
2022/06/18 03:00:44;;;;;;;2.03;1.27;;;23.60;86.70;;;;;;4097368;28;20115;-70
2022/06/18 03:02:45;;;;;;;1.60;1.30;;;23.60;87.20;;;;;;4098248;29;20031;-70
2022/06/18 03:04:45;;;;;;;2.28;1.55;;;23.60;87.50;;;;;;4098177;28;20098;-70
2022/06/18 03:06:46;;;;;;;2.08;1.30;;;23.50;87.00;;;;;;4097071;28;20439;-70
2022/06/18 03:08:49;;;;;;;1.92;1.40;;;23.40;87.00;;;;;;4096473;28;20043;-71
2022/06/18 03:13:09;;;;;;;3.15;1.58;;;23.40;86.80;;;;;;4098155;28;20027;-70
2022/06/18 03:15:10;;;;;;;1.80;1.38;;;23.40;87.70;;;;;;4097324;28;20446;-72
2022/06/18 03:17:11;;;;;;;3.83;1.42;;;23.50;87.30;;;;;;4097817;28;20031;-70
2022/06/18 03:19:33;;;;;;;1.50;1.10;;;23.40;87.50;;;;;;4096308;28;20031;-71
2022/06/18 03:21:48;;;;;;;4.45;1.23;;;23.40;87.60;;;;;;4097077;28;20114;-70
2022/06/18 03:23:48;;;;;;;1.58;1.25;;;23.40;87.10;;;;;;4094958;28;20035;-70
2022/06/18 03:25:50;;;;;;;1.42;1.10;;;23.40;87.40;;;;;;4097294;28;20538;-70
2022/06/18 03:27:50;;;;;;;1.80;0.90;;;23.40;87.50;;;;;;4097505;28;20311;-70
2022/06/18 03:29:52;;;;;;;2.05;1.33;;;23.40;87.80;;;;;;4096998;28;20383;-70
2022/06/18 03:31:52;;;;;;;1.63;1.40;;;23.40;87.90;;;;;;4097460;28;20030;-71
2022/06/18 03:33:53;;;;;;;1.88;1.30;;;23.40;88.10;;;;;;4099926;28;20043;-70
2022/06/18 03:35:54;;;;;;;2.78;1.30;;;23.40;88.20;;;;;;4094775;28;20038;-70
2022/06/18 03:37:55;;;;;;;2.17;1.27;;;23.40;88.10;;;;;;4098158;28;20494;-70
2022/06/18 03:39:55;;;;;;;2.10;1.17;;;23.40;87.90;;;;;;4096273;28;20089;-70
2022/06/18 03:41:56;;;;;;;1.63;1.48;;;23.40;88.30;;;;;;4097264;28;20115;-70
2022/06/18 03:43:56;;;;;;;2.33;1.35;;;23.40;88.30;;;;;;4097631;28;20045;-70
2022/06/18 03:46:01;;;;;;;1.25;0.90;;;23.50;88.60;;;;;;4097282;28;20043;-70
2022/06/18 03:48:01;;;;;;;1.40;1.30;;;23.50;88.70;;;;;;4096644;28;20037;-70
2022/06/18 03:50:03;;;;;;;2.45;1.35;;;23.50;89.20;;;;;;4096469;28;20086;-72
2022/06/18 03:52:06;;;;;;;1.63;1.40;;;23.50;88.70;;;;;;4096737;28;20035;-70
2022/06/18 03:54:07;;;;;;;2.10;1.30;;;23.50;89.00;;;;;;4097336;28;20050;-71
2022/06/18 03:56:11;;;;;;;2.33;1.17;;;23.40;90.00;;;;;;4097571;28;20636;-70
2022/06/18 03:58:12;;;;;;;1.70;1.10;;;23.40;88.70;;;;;;4094106;28;20043;-70
2022/06/18 04:00:21;;;;;;;1.80;1.33;;;23.40;89.60;;;;;;4096115;28;20047;-71
2022/06/18 04:02:21;;;;;;;4.72;1.40;;;23.40;89.40;;;;;;4094269;28;20182;-70
2022/06/18 04:04:22;;;;;;;1.88;1.25;;;23.40;89.00;;;;;;4096885;28;20036;-70
2022/06/18 04:06:23;;;;;;;2.70;1.60;;;23.40;89.20;;;;;;4094237;28;20042;-70
2022/06/18 04:08:24;;;;;;;2.67;1.60;;;23.40;89.60;;;;;;4095731;28;20106;-70
2022/06/18 04:10:25;;;;;;;1.92;1.35;;;23.30;89.70;;;;;;4093122;28;20398;-70
2022/06/18 04:12:25;;;;;;;2.63;1.70;;;23.40;89.70;;;;;;4096574;28;20035;-71
2022/06/18 04:14:26;;;;;;;2.40;1.50;;;23.40;89.50;;;;;;4096881;29;20082;-70
2022/06/18 04:16:27;;;;;;;2.67;1.70;;;23.40;90.00;;;;;;4095943;28;20063;-70
2022/06/18 04:18:28;;;;;;;2.88;1.50;;;23.40;89.90;;;;;;4095079;28;20054;-70
2022/06/18 04:20:32;;;;;;;3.17;1.45;;;23.30;90.00;;;;;;4080093;29;20039;-70
2022/06/18 04:22:32;;;;;;;1.20;1.10;;;23.40;90.30;;;;;;4096856;28;20073;-70
2022/06/18 04:24:33;;;;;;;3.22;1.25;;;23.40;90.10;;;;;;4094885;28;20514;-71
2022/06/18 04:26:35;;;;;;;1.45;1.10;;;23.50;90.40;;;;;;4093637;28;20042;-70
2022/06/18 04:28:37;;;;;;;2.55;1.30;;;23.40;90.50;;;;;;4097098;28;20122;-70
2022/06/18 04:30:38;;;;;;;1.93;1.30;;;23.50;90.60;;;;;;4095004;28;20043;-70
2022/06/18 04:32:39;;;;;;;1.73;1.17;;;23.50;90.30;;;;;;4096091;28;20417;-70
2022/06/18 04:34:40;;;;;;;3.10;1.40;;;23.50;90.40;;;;;;4096572;28;20035;-70
2022/06/18 04:36:41;;;;;;;1.63;1.20;;;23.50;90.60;;;;;;4095970;28;20093;-70
2022/06/18 04:38:42;;;;;;;4.25;1.80;;;23.60;90.30;;;;;;4096380;28;20093;-71
2022/06/18 04:40:42;;;;;;;1.80;1.30;;;23.60;90.20;;;;;;4094625;28;20086;-70
2022/06/18 04:42:43;;;;;;;3.05;1.65;;;23.60;90.30;;;;;;4097399;28;20031;-71
2022/06/18 04:44:43;;;;;;;3.38;1.35;;;23.70;90.40;;;;;;4096412;28;20047;-70
2022/06/18 04:46:44;;;;;;;2.55;1.38;;;23.70;90.20;;;;;;4095536;28;20122;-71
2022/06/18 04:48:45;;;;;;;1.73;1.40;;;23.70;90.30;;;;;;4096416;28;20027;-70
2022/06/18 04:50:46;;;;;;;3.47;1.40;;;23.70;90.60;;;;;;4080637;28;20046;-71
2022/06/18 04:52:47;;;;;;;3.35;1.55;;;23.70;90.20;;;;;;4095707;28;20106;-70
2022/06/18 04:54:47;;;;;;;2.95;1.45;;;23.70;90.40;;;;;;4095413;28;20071;-70
2022/06/18 04:56:48;;;;;;;3.13;1.88;;;23.80;91.00;;;;;;4095584;28;20148;-70
2022/06/18 04:58:49;;;;;;;2.22;1.25;;;23.80;90.80;;;;;;4098038;28;20115;-70
2022/06/18 05:00:49;;;;;;;4.72;1.50;;;23.80;90.50;;;;;;4095404;28;20122;-70
2022/06/18 05:02:50;;;;;;;2.47;1.33;;;23.80;90.50;;;;;;4096060;28;20487;-70
2022/06/18 05:04:53;;;;;;;3.13;1.77;;;23.90;90.70;;;;;;4096008;28;20039;-70
2022/06/18 05:06:53;;;;;;;1.90;1.30;;;23.90;90.50;;;;;;4095441;28;20375;-70
2022/06/18 05:08:54;;;;;;;4.90;1.70;;;23.90;90.60;;;;;;4094402;28;20098;-71
2022/06/18 05:10:54;;;;;;;1.92;1.50;;;24.00;90.40;;;;;;4091294;28;20487;-71
2022/06/18 05:12:55;;;;;;;2.92;1.58;;;24.00;90.50;;;;;;4095735;28;20122;-71
2022/06/18 05:14:56;;;;;;;5.05;1.67;;;24.00;90.40;;;;;;4096190;28;20102;-70
2022/06/18 05:16:58;;;;;;;2.80;1.40;;;24.00;90.50;;;;;;4095939;28;20148;-71
2022/06/18 05:18:59;;;;;;;2.20;1.58;;;24.00;90.40;;;;;;4094965;28;20037;-74
2022/06/18 05:21:00;;;;;;;2.33;1.65;;;24.10;90.50;;;;;;4091813;28;20447;-73
2022/06/18 05:23:01;;;;;;;1.77;1.48;;;24.10;90.40;;;;;;4091283;28;20081;-73
2022/06/18 05:25:02;;;;;;;1.90;1.27;;;24.10;90.40;;;;;;4095635;28;20398;-75
2022/06/18 05:27:03;;;;;;;1.95;1.20;;;24.20;90.40;;;;;;4087632;28;20035;-73
2022/06/18 05:29:04;;;;;;;2.35;1.55;;;24.20;90.20;;;;;;4094469;28;20042;-73
2022/06/18 05:31:04;;;;;;;4.30;1.73;;;24.30;90.50;;;;;;4093292;28;20430;-73
2022/06/18 05:33:06;;;;;;;1.15;1.05;;;24.30;90.30;;;;;;4095086;28;20057;-73
2022/06/18 05:35:08;;;;;;;2.45;1.80;;;24.40;90.40;;;;;;4094945;28;20372;-74
2022/06/18 05:37:16;;;;;;;1.90;1.45;;;24.40;90.20;;;;;;4099426;28;20388;-73
2022/06/18 05:39:18;;;;;;;3.17;1.90;;;24.50;90.10;;;;;;4095472;28;20391;-73
2022/06/18 05:41:19;;;;;;;2.22;1.50;;;24.50;90.30;;;;;;4094699;28;20047;-73
2022/06/18 05:43:20;;;;;;;3.72;1.80;;;24.60;90.30;;;;;;4096040;28;20062;-73
2022/06/18 05:45:21;;;;;;;2.33;1.63;;;24.60;90.40;;;;;;4095529;28;20041;-73
2022/06/18 05:47:25;;;;;;;2.45;1.50;;;24.70;90.50;;;;;;4094482;28;20046;-73
2022/06/18 05:49:25;;;;;;;3.17;1.55;;;24.90;90.30;;;;;;4092545;28;20039;-73
2022/06/18 05:51:26;;;;;;;3.67;1.58;;;25.00;90.10;;;;;;4095100;28;20074;-73
2022/06/18 05:53:27;;;;;;;6.93;1.58;;;25.20;90.20;;;;;;4097248;28;20034;-73
2022/06/18 05:55:27;;;;;;;5.63;1.70;;;25.40;89.40;;;;;;4094338;28;20085;-73
2022/06/18 05:57:28;;;;;;;2.15;1.30;;;25.70;89.60;;;;;;4094327;28;20499;-73
2022/06/18 05:59:29;;;;;;;3.53;1.70;;;25.90;89.40;;;;;;4094186;28;20035;-73
2022/06/18 06:01:29;;;;;;;5.70;1.88;;;26.00;89.00;;;;;;4093477;28;20043;-73
2022/06/18 06:03:30;;;;;;;3.00;1.50;;;26.10;88.10;;;;;;4095201;28;20035;-73
2022/06/18 06:05:32;;;;;;;3.65;1.52;;;26.30;88.70;;;;;;4084044;28;20039;-73
2022/06/18 06:07:33;;;;;;;6.85;2.08;;;26.50;87.50;;;;;;4093883;28;20042;-73
2022/06/18 06:11:52;;;;;;;2.08;1.60;;;26.90;86.30;;;;;;4092584;28;20491;-73
2022/06/18 06:13:53;;;;;;;2.55;1.50;;;27.10;85.90;;;;;;4095031;28;20090;-73
2022/06/18 06:15:54;;;;;;;8.82;2.10;;;27.40;85.00;;;;;;4094886;28;20039;-74
2022/06/18 06:17:55;;;;;;;3.47;1.80;;;27.50;82.90;;;;;;4095931;28;20403;-74
2022/06/18 06:20:07;;;;;;;3.92;1.80;;;27.60;83.90;;;;;;4093152;28;20046;-74
2022/06/18 06:22:08;;;;;;;5.60;1.80;;;27.80;82.90;;;;;;4092322;28;20066;-74
2022/06/18 06:24:08;;;;;;;3.28;1.80;;;28.00;83.40;;;;;;4092912;28;20384;-74
2022/06/18 06:26:25;;;;;;;11.63;2.15;;;28.00;81.60;;;;;;4095709;28;20128;-74
2022/06/18 06:28:28;;;;;;;4.80;1.75;;;28.00;82.00;;;;;;4095191;28;20027;-74
2022/06/18 06:30:29;;;;;;;2.25;1.50;;;28.10;81.60;;;;;;4094441;28;20058;-74
2022/06/18 06:32:30;;;;;;;4.85;1.50;;;28.10;83.30;;;;;;4082430;28;20032;-74
2022/06/18 06:34:30;;;;;;;3.63;1.65;;;28.10;82.60;;;;;;4091301;29;20032;-74
2022/06/18 06:36:31;;;;;;;2.65;1.90;;;28.00;81.40;;;;;;4095101;28;20031;-74
2022/06/18 06:38:32;;;;;;;3.08;1.63;;;28.00;81.20;;;;;;4094095;28;20135;-74
2022/06/18 06:40:34;;;;;;;3.42;1.83;;;28.00;82.20;;;;;;4093616;28;20464;-74
2022/06/18 06:42:49;;;;;;;3.37;1.80;;;28.00;81.50;;;;;;4095543;28;20361;-74
2022/06/18 06:44:50;;;;;;;3.22;1.80;;;27.80;83.00;;;;;;4093854;28;20263;-74
2022/06/18 06:46:52;;;;;;;4.28;1.77;;;27.90;82.70;;;;;;4093142;28;20123;-73
2022/06/18 06:48:52;;;;;;;3.95;1.63;;;27.90;82.20;;;;;;4087201;29;20166;-74
2022/06/18 06:50:53;;;;;;;2.05;1.50;;;28.00;82.10;;;;;;4094558;28;20053;-74
2022/06/18 06:52:55;;;;;;;4.22;1.73;;;28.00;82.30;;;;;;4091140;28;20039;-71
2022/06/18 06:57:21;;;;;;;3.00;1.50;;;28.00;83.20;;;;;;4092575;28;20542;-72
2022/06/18 06:57:22;;;;;;;3.63;2.20;;;28.00;83.40;;;;;;4087726;28;20043;-72
2022/06/18 06:59:23;;;;;;;2.63;2.00;;;28.10;82.60;;;;;;4092047;28;20042;-72
2022/06/18 07:01:24;;;;;;;6.47;2.55;;;28.00;81.80;;;;;;4094080;28;20043;-72
2022/06/18 07:03:28;;;;;;;3.72;1.88;;;28.00;81.90;;;;;;4093857;28;20490;-72
2022/06/18 07:05:29;;;;;;;3.47;1.77;;;28.00;81.60;;;;;;4090730;28;20047;-73
2022/06/18 07:07:30;;;;;;;3.30;1.63;;;28.00;82.50;;;;;;4094586;28;20055;-72
2022/06/18 07:09:31;;;;;;;5.05;2.40;;;28.10;82.10;;;;;;4093722;28;20418;-72
2022/06/18 07:11:33;;;;;;;3.38;1.80;;;28.10;82.70;;;;;;4091642;28;20035;-72
2022/06/18 07:13:33;;;;;;;3.17;1.85;;;28.10;82.90;;;;;;4093225;28;20035;-72
2022/06/18 07:15:34;;;;;;;6.10;2.22;;;28.20;82.10;;;;;;4095986;28;20039;-72
2022/06/18 07:17:35;;;;;;;4.55;2.35;;;28.30;81.60;;;;;;4097164;28;20446;-74
2022/06/18 07:19:35;;;;;;;11.18;2.50;;;28.30;80.80;;;;;;4096512;28;20043;-73
2022/06/18 07:21:36;;;;;;;3.92;2.22;;;28.20;81.00;;;;;;4097622;28;20395;-74
2022/06/18 07:23:37;;;;;;;6.18;2.25;;;28.30;82.10;;;;;;4097940;28;20490;-74
2022/06/18 07:25:38;;;;;;;12.27;2.15;;;28.30;81.60;;;;;;4097745;28;20450;-74
2022/06/18 07:27:40;;;;;;;5.40;2.60;;;28.30;80.40;;;;;;4098109;28;20051;-74
2022/06/18 07:29:41;;;;;;;6.45;2.00;;;28.30;81.00;;;;;;4096593;28;20534;-74
2022/06/18 07:31:42;;;;;;;5.03;2.17;;;28.40;81.60;;;;;;4096020;28;20087;-73
2022/06/18 07:33:45;;;;;;;4.43;2.00;;;28.40;81.20;;;;;;4089283;29;20126;-74
2022/06/18 07:35:46;;;;;;;5.03;2.10;;;28.40;80.50;;;;;;4095792;28;20035;-73
2022/06/18 07:37:47;;;;;;;5.45;2.17;;;28.50;81.40;;;;;;4098396;28;20070;-73
2022/06/18 07:39:48;;;;;;;4.13;2.00;;;28.50;81.50;;;;;;4096790;29;20035;-73
2022/06/18 07:41:53;;;;;;;4.88;2.03;;;28.60;80.60;;;;;;4096671;28;20368;-73
2022/06/18 07:43:55;;;;;;;4.10;1.90;;;28.60;79.30;;;;;;4085606;28;20043;-73
2022/06/18 07:45:55;;;;;;;2.22;1.70;;;28.70;79.80;;;;;;4098290;28;20030;-73
2022/06/18 07:47:56;;;;;;;4.22;2.20;;;28.70;80.30;;;;;;4096471;28;20038;-73
2022/06/18 07:49:56;;;;;;;6.15;2.58;;;28.70;79.70;;;;;;4094621;28;20485;-73
2022/06/18 07:51:57;;;;;;;9.60;2.53;;;28.80;79.00;;;;;;4095447;28;20040;-73
2022/06/18 07:53:58;;;;;;;8.50;2.83;;;28.80;77.60;;;;;;4096956;28;20055;-73
2022/06/18 07:55:59;;;;;;;3.38;1.90;;;28.70;78.70;;;;;;4094256;28;20368;-73
2022/06/18 07:58:00;;;;;;;5.00;2.08;;;28.80;77.90;;;;;;4098583;28;20035;-73
2022/06/18 08:00:00;;;;;;;8.65;2.60;;;28.80;78.10;;;;;;4097348;28;20383;-73
2022/06/18 08:02:01;;;;;;;6.30;2.47;;;28.80;77.80;;;;;;4066350;29;20469;-71
2022/06/18 08:04:02;;;;;;;8.30;2.30;;;28.70;77.20;;;;;;4097817;28;20046;-73
2022/06/18 08:06:03;;;;;;;8.45;2.10;;;28.80;77.60;;;;;;4094114;28;20086;-73
2022/06/18 08:08:04;;;;;;;6.43;2.30;;;28.80;77.80;;;;;;4092619;28;20031;-74
2022/06/18 08:10:06;;;;;;;19.63;4.05;;;28.90;77.70;;;;;;4093129;28;20212;-75
2022/06/18 08:12:07;;;;;;;16.37;2.93;;;28.90;76.80;;;;;;4095707;28;20066;-73
2022/06/18 08:14:07;;;;;;;5.93;3.45;;;28.90;77.40;;;;;;4094611;28;20678;-73
2022/06/18 08:16:12;;;;;;;7.20;2.30;;;28.90;76.00;;;;;;4095633;28;20055;-73
2022/06/18 08:18:14;;;;;;;3.60;2.00;;;28.90;77.40;;;;;;4082521;29;20043;-73
2022/06/18 08:20:14;;;;;;;5.38;2.22;;;28.90;78.50;;;;;;4095412;28;20070;-75
2022/06/18 08:22:15;;;;;;;9.05;2.55;;;29.00;77.60;;;;;;4095416;28;20032;-73
2022/06/18 08:24:21;;;;;;;4.93;2.33;;;29.00;77.00;;;;;;4096174;28;20403;-73
2022/06/18 08:26:22;;;;;;;6.82;2.65;;;29.10;77.40;;;;;;4093282;28;20035;-71
2022/06/18 08:28:23;;;;;;;8.85;2.22;;;29.10;76.60;;;;;;4095312;28;20081;-73
2022/06/18 08:30:25;;;;;;;9.68;2.60;;;29.20;76.80;;;;;;4093520;28;20058;-73
2022/06/18 08:32:25;;;;;;;8.17;2.60;;;29.20;75.90;;;;;;4096293;28;20406;-73
2022/06/18 08:34:26;;;;;;;12.20;2.67;;;29.20;75.80;;;;;;4096851;28;20267;-73
2022/06/18 08:36:27;;;;;;;5.72;2.58;;;29.20;76.10;;;;;;4093847;28;20036;-73
2022/06/18 08:38:28;;;;;;;5.13;2.40;;;29.20;76.20;;;;;;4094833;28;20418;-73
2022/06/18 08:40:57;;;;;;;6.20;2.67;;;29.30;78.40;;;;;;4093759;28;20522;-73
2022/06/18 08:43:36;;;;;;;7.97;2.85;;;29.50;78.10;;;;;;4087696;28;20039;-73
2022/06/18 08:45:44;;;;;;;5.95;2.50;;;29.50;75.50;;;;;;4092500;28;20118;-73
2022/06/18 08:48:02;;;;;;;6.43;2.72;;;29.60;75.90;;;;;;4096526;28;20039;-73
2022/06/18 08:50:09;;;;;;;14.25;2.67;;;29.60;74.50;;;;;;4093606;28;20495;-75
2022/06/18 08:52:15;;;;;;;5.03;2.22;;;29.60;74.80;;;;;;4094102;28;20055;-73
2022/06/18 08:54:32;;;;;;;12.05;2.63;;;29.60;74.70;;;;;;4096352;28;20066;-73
2022/06/18 08:56:44;;;;;;;10.80;3.10;;;29.60;76.00;;;;;;4096183;28;20117;-73
2022/06/18 08:58:53;;;;;;;8.57;2.53;;;29.60;74.30;;;;;;4094792;28;20094;-73
2022/06/18 09:01:03;;;;;;;5.20;2.20;;;29.70;75.20;;;;;;4095723;28;20045;-73
2022/06/18 09:03:12;;;;;;;6.15;2.15;;;29.70;75.30;;;;;;4097560;28;20090;-73
2022/06/18 09:05:24;;;;;;;12.35;2.72;;;29.80;76.00;;;;;;4085248;28;21234;-73
2022/06/18 09:07:57;;;;;;;5.57;2.72;;;29.90;74.70;;;;;;4095948;28;20071;-73
2022/06/18 09:10:00;;;;;;;5.93;2.83;;;30.00;75.00;;;;;;4093240;28;20039;-73
2022/06/18 09:12:42;;;;;;;13.10;2.70;;;30.10;75.80;;;;;;4085221;29;20044;-74
2022/06/18 09:14:48;;;;;;;8.23;2.67;;;30.20;73.90;;;;;;4083322;28;20165;-74
2022/06/18 09:17:00;;;;;;;8.07;2.35;;;30.20;74.10;;;;;;4090745;28;20035;-73
2022/06/18 09:19:04;;;;;;;6.95;2.78;;;30.30;74.80;;;;;;4097888;28;20047;-73
2022/06/18 09:21:13;;;;;;;8.23;2.72;;;30.40;75.60;;;;;;4093805;28;20031;-73
2022/06/18 09:23:30;;;;;;;6.53;2.83;;;30.50;74.80;;;;;;4097023;28;20043;-73
2022/06/18 09:25:38;;;;;;;7.82;2.40;;;30.50;73.70;;;;;;4095499;28;20123;-73
2022/06/18 09:27:54;;;;;;;5.82;2.67;;;30.60;74.80;;;;;;4095224;28;20035;-73
2022/06/18 09:30:06;;;;;;;6.03;2.60;;;30.60;74.20;;;;;;4096983;28;20403;-73
2022/06/18 09:32:15;;;;;;;5.82;2.35;;;30.60;74.70;;;;;;4096802;28;20035;-74
2022/06/18 09:34:39;;;;;;;6.07;2.50;;;30.70;73.90;;;;;;4095874;28;20108;-73
2022/06/18 09:36:44;;;;;;;6.53;2.30;;;30.80;75.10;;;;;;4091044;28;20054;-73
2022/06/18 09:38:54;;;;;;;4.32;2.30;;;30.80;75.90;;;;;;4094632;28;20037;-73
2022/06/18 09:41:01;;;;;;;8.63;2.33;;;30.90;76.10;;;;;;4094535;28;20035;-73
2022/06/18 09:43:17;;;;;;;6.90;2.50;;;30.90;76.90;;;;;;4094370;28;20487;-73
2022/06/18 09:45:31;;;;;;;9.02;2.78;;;31.00;73.20;;;;;;4096626;28;20442;-75
2022/06/18 09:47:38;;;;;;;7.65;2.45;;;31.00;71.40;;;;;;4095923;28;20110;-73
2022/06/18 09:49:40;;;;;;;11.57;3.47;;;31.10;72.00;;;;;;4093319;28;20043;-73
2022/06/18 09:52:12;;;;;;;7.55;2.63;;;31.10;70.30;;;;;;4096002;28;20028;-73
2022/06/18 09:54:16;;;;;;;8.18;2.15;;;31.10;69.50;;;;;;4093570;28;20043;-73
2022/06/18 09:56:26;;;;;;;6.97;2.20;;;31.20;69.60;;;;;;4094278;28;20032;-73
2022/06/18 09:58:33;;;;;;;12.65;2.97;;;31.10;69.20;;;;;;4097017;28;20031;-73
2022/06/18 10:00:34;;;;;;;9.45;2.70;;;31.10;70.00;;;;;;4092535;28;20038;-73
2022/06/18 10:02:41;;;;;;;7.30;3.03;;;31.10;71.10;;;;;;4098694;28;20089;-73
2022/06/18 10:07:04;;;;;;;10.73;3.22;;;31.20;74.10;;;;;;4093615;28;20035;-73
2022/06/18 10:09:05;;;;;;;11.20;3.38;;;31.30;74.20;;;;;;4095949;28;20402;-73
2022/06/18 10:11:09;;;;;;;6.93;2.47;;;31.30;73.10;;;;;;4095595;28;20040;-73
2022/06/18 10:13:21;;;;;;;9.68;2.90;;;31.40;71.10;;;;;;4096401;28;20075;-73
2022/06/18 10:15:23;;;;;;;6.70;2.58;;;31.40;71.20;;;;;;4093436;28;20054;-74
2022/06/18 10:18:08;;;;;;;10.38;3.28;;;31.50;72.70;;;;;;4094803;28;20032;-73
2022/06/18 10:20:15;;;;;;;11.82;3.22;;;31.50;69.60;;;;;;4094892;28;20028;-75
2022/06/18 10:22:40;;;;;;;8.13;2.83;;;31.50;69.50;;;;;;4095277;28;20034;-73
2022/06/18 10:25:06;;;;;;;8.02;2.58;;;31.60;69.40;;;;;;4096159;28;20114;-73
2022/06/18 10:27:13;;;;;;;7.28;2.88;;;31.60;69.30;;;;;;4093798;28;20046;-73
2022/06/18 10:29:33;;;;;;;8.52;2.30;;;31.70;68.40;;;;;;4085998;29;20091;-73
2022/06/18 10:31:46;;;;;;;8.73;2.80;;;31.70;68.00;;;;;;4093839;28;20118;-73
2022/06/18 10:33:59;;;;;;;9.75;2.50;;;31.70;68.80;;;;;;4094426;28;20058;-74
2022/06/18 10:36:02;;;;;;;;;;;31.70;69.10;;;;;;4094258;28;20554;-73
2022/06/18 10:38:03;;;;;;;10.45;2.50;;;31.90;69.00;;;;;;4076684;29;19911;-73
2022/06/18 10:40:26;;;;;;;11.00;2.97;;;31.90;69.70;;;;;;4093807;28;20027;-75
2022/06/18 10:42:29;;;;;;;;;;;31.90;71.50;;;;;;4093691;28;20050;-73
2022/06/18 10:44:54;;;;;;;4.80;2.53;;;31.90;69.80;;;;;;4094553;28;19911;-73
2022/06/18 10:47:08;;;;;;;7.40;3.38;;;32.00;70.30;;;;;;4077491;29;20032;-72
2022/06/18 10:49:09;;;;;;;11.57;2.78;;;32.00;68.30;;;;;;4085003;28;20032;-73
2022/06/18 10:51:16;;;;;;;12.77;2.65;;;32.00;69.80;;;;;;4097144;28;20027;-72
2022/06/18 10:53:20;;;;;;;10.50;3.20;;;32.00;68.50;;;;;;4097164;28;21213;-73
2022/06/18 10:55:22;;;;;;;6.95;2.72;;;32.10;67.80;;;;;;4098161;28;20039;-74
2022/06/18 10:57:25;;;;;;;5.80;2.13;;;32.10;65.80;;;;;;4097678;28;20543;-72
2022/06/18 10:59:44;;;;;;;12.98;2.50;;;32.20;66.60;;;;;;4098987;28;20094;-73